sensor_id;sensor_type;location;lat;lon;timestamp;P1;durP1;ratioP1;P2;durP2;ratioP2
51981;SDS011;37998;53.416;6.730;2023-03-23T00:01:13;4.22;;;2.95;;
51981;SDS011;37998;53.416;6.730;2023-03-23T00:03:44;8.87;;;2.80;;
51981;SDS011;37998;53.416;6.730;2023-03-23T00:06:12;5.40;;;2.72;;
51981;SDS011;37998;53.416;6.730;2023-03-23T00:08:42;4.70;;;2.58;;
51981;SDS011;37998;53.416;6.730;2023-03-23T00:11:17;3.88;;;2.45;;
51981;SDS011;37998;53.416;6.730;2023-03-23T00:13:45;4.80;;;2.10;;
51981;SDS011;37998;53.416;6.730;2023-03-23T00:16:13;2.92;;;2.33;;
51981;SDS011;37998;53.416;6.730;2023-03-23T00:18:45;5.03;;;2.30;;
51981;SDS011;37998;53.416;6.730;2023-03-23T00:21:17;3.83;;;2.13;;
51981;SDS011;37998;53.416;6.730;2023-03-23T00:23:44;2.97;;;1.92;;
51981;SDS011;37998;53.416;6.730;2023-03-23T00:26:11;2.95;;;1.98;;
51981;SDS011;37998;53.416;6.730;2023-03-23T00:28:37;3.75;;;1.80;;
51981;SDS011;37998;53.416;6.730;2023-03-23T00:31:05;5.03;;;2.50;;
51981;SDS011;37998;53.416;6.730;2023-03-23T00:33:33;6.18;;;2.97;;
51981;SDS011;37998;53.416;6.730;2023-03-23T00:36:03;6.15;;;3.10;;
51981;SDS011;37998;53.416;6.730;2023-03-23T00:38:30;3.85;;;3.20;;
51981;SDS011;37998;53.416;6.730;2023-03-23T00:40:56;8.32;;;4.38;;
51981;SDS011;37998;53.416;6.730;2023-03-23T00:43:22;5.22;;;4.57;;
51981;SDS011;37998;53.416;6.730;2023-03-23T00:45:54;7.43;;;6.03;;
51981;SDS011;37998;53.416;6.730;2023-03-23T00:48:24;7.45;;;6.40;;
51981;SDS011;37998;53.416;6.730;2023-03-23T00:50:50;6.80;;;5.40;;
51981;SDS011;37998;53.416;6.730;2023-03-23T00:53:17;7.65;;;6.28;;
51981;SDS011;37998;53.416;6.730;2023-03-23T00:55:44;6.43;;;5.82;;
51981;SDS011;37998;53.416;6.730;2023-03-23T00:58:11;7.30;;;5.25;;
51981;SDS011;37998;53.416;6.730;2023-03-23T01:00:38;6.35;;;5.05;;
51981;SDS011;37998;53.416;6.730;2023-03-23T01:03:04;6.88;;;5.53;;
51981;SDS011;37998;53.416;6.730;2023-03-23T01:05:34;7.15;;;4.93;;
51981;SDS011;37998;53.416;6.730;2023-03-23T01:08:01;5.72;;;5.20;;
51981;SDS011;37998;53.416;6.730;2023-03-23T01:10:27;6.78;;;5.38;;
51981;SDS011;37998;53.416;6.730;2023-03-23T01:12:53;7.47;;;5.43;;
51981;SDS011;37998;53.416;6.730;2023-03-23T01:15:20;7.78;;;6.10;;
51981;SDS011;37998;53.416;6.730;2023-03-23T01:17:46;7.30;;;6.57;;
51981;SDS011;37998;53.416;6.730;2023-03-23T01:20:13;7.63;;;6.90;;
51981;SDS011;37998;53.416;6.730;2023-03-23T01:22:40;9.05;;;8.15;;
51981;SDS011;37998;53.416;6.730;2023-03-23T01:25:06;10.82;;;9.20;;
51981;SDS011;37998;53.416;6.730;2023-03-23T01:27:34;11.40;;;8.75;;
51981;SDS011;37998;53.416;6.730;2023-03-23T01:30:00;12.13;;;9.63;;
51981;SDS011;37998;53.416;6.730;2023-03-23T01:32:26;13.60;;;10.15;;
51981;SDS011;37998;53.416;6.730;2023-03-23T01:34:52;14.60;;;10.68;;
51981;SDS011;37998;53.416;6.730;2023-03-23T01:37:17;12.57;;;10.95;;
51981;SDS011;37998;53.416;6.730;2023-03-23T01:39:44;13.70;;;10.80;;
51981;SDS011;37998;53.416;6.730;2023-03-23T01:42:10;11.68;;;9.65;;
51981;SDS011;37998;53.416;6.730;2023-03-23T01:47:02;11.18;;;7.80;;
51981;SDS011;37998;53.416;6.730;2023-03-23T01:49:33;10.68;;;7.65;;
51981;SDS011;37998;53.416;6.730;2023-03-23T01:52:06;11.32;;;6.90;;
51981;SDS011;37998;53.416;6.730;2023-03-23T01:54:38;8.32;;;6.05;;
51981;SDS011;37998;53.416;6.730;2023-03-23T01:57:13;7.63;;;5.78;;
51981;SDS011;37998;53.416;6.730;2023-03-23T01:59:43;6.50;;;5.85;;
51981;SDS011;37998;53.416;6.730;2023-03-23T02:02:12;8.02;;;5.40;;
51981;SDS011;37998;53.416;6.730;2023-03-23T02:04:40;7.97;;;4.53;;
51981;SDS011;37998;53.416;6.730;2023-03-23T02:07:07;6.75;;;5.28;;
51981;SDS011;37998;53.416;6.730;2023-03-23T02:09:33;7.50;;;5.32;;
51981;SDS011;37998;53.416;6.730;2023-03-23T02:11:59;7.07;;;5.15;;
51981;SDS011;37998;53.416;6.730;2023-03-23T02:14:26;7.40;;;5.50;;
51981;SDS011;37998;53.416;6.730;2023-03-23T02:19:33;8.85;;;6.10;;
51981;SDS011;37998;53.416;6.730;2023-03-23T02:35:42;9.85;;;7.50;;
51981;SDS011;37998;53.416;6.730;2023-03-23T02:38:14;15.95;;;8.20;;
51981;SDS011;37998;53.416;6.730;2023-03-23T02:40:47;14.15;;;7.63;;
51981;SDS011;37998;53.416;6.730;2023-03-23T02:43:19;9.05;;;7.22;;
51981;SDS011;37998;53.416;6.730;2023-03-23T02:45:48;14.00;;;7.82;;
51981;SDS011;37998;53.416;6.730;2023-03-23T02:48:15;12.77;;;7.93;;
51981;SDS011;37998;53.416;6.730;2023-03-23T02:50:46;11.60;;;7.00;;
51981;SDS011;37998;53.416;6.730;2023-03-23T02:53:16;7.60;;;6.60;;
51981;SDS011;37998;53.416;6.730;2023-03-23T02:55:47;9.82;;;6.75;;
51981;SDS011;37998;53.416;6.730;2023-03-23T02:58:13;9.77;;;6.88;;
51981;SDS011;37998;53.416;6.730;2023-03-23T03:00:39;12.35;;;7.15;;
51981;SDS011;37998;53.416;6.730;2023-03-23T03:03:07;10.45;;;5.93;;
51981;SDS011;37998;53.416;6.730;2023-03-23T03:11:11;9.35;;;6.13;;
51981;SDS011;37998;53.416;6.730;2023-03-23T03:16:53;7.93;;;6.10;;
51981;SDS011;37998;53.416;6.730;2023-03-23T03:19:27;11.85;;;6.57;;
51981;SDS011;37998;53.416;6.730;2023-03-23T03:21:57;9.13;;;6.03;;
51981;SDS011;37998;53.416;6.730;2023-03-23T03:24:25;11.70;;;5.85;;
51981;SDS011;37998;53.416;6.730;2023-03-23T03:26:54;9.93;;;5.75;;
51981;SDS011;37998;53.416;6.730;2023-03-23T03:29:30;8.65;;;5.63;;
51981;SDS011;37998;53.416;6.730;2023-03-23T03:32:01;7.40;;;5.28;;
51981;SDS011;37998;53.416;6.730;2023-03-23T03:34:31;10.05;;;6.10;;
51981;SDS011;37998;53.416;6.730;2023-03-23T03:36:57;6.90;;;4.72;;
51981;SDS011;37998;53.416;6.730;2023-03-23T03:39:24;8.10;;;5.22;;
51981;SDS011;37998;53.416;6.730;2023-03-23T03:41:50;13.65;;;5.78;;
51981;SDS011;37998;53.416;6.730;2023-03-23T03:44:16;10.35;;;5.55;;
51981;SDS011;37998;53.416;6.730;2023-03-23T03:46:42;9.35;;;5.05;;
51981;SDS011;37998;53.416;6.730;2023-03-23T03:49:09;10.68;;;5.57;;
51981;SDS011;37998;53.416;6.730;2023-03-23T03:51:37;7.90;;;4.82;;
51981;SDS011;37998;53.416;6.730;2023-03-23T03:54:05;7.38;;;5.03;;
51981;SDS011;37998;53.416;6.730;2023-03-23T03:56:31;8.57;;;4.85;;
51981;SDS011;37998;53.416;6.730;2023-03-23T03:59:00;9.73;;;5.32;;
51981;SDS011;37998;53.416;6.730;2023-03-23T04:01:25;10.85;;;4.70;;
51981;SDS011;37998;53.416;6.730;2023-03-23T04:03:51;11.10;;;5.43;;
51981;SDS011;37998;53.416;6.730;2023-03-23T04:06:17;10.30;;;5.13;;
51981;SDS011;37998;53.416;6.730;2023-03-23T04:08:43;8.07;;;4.80;;
51981;SDS011;37998;53.416;6.730;2023-03-23T04:11:10;5.88;;;4.15;;
51981;SDS011;37998;53.416;6.730;2023-03-23T04:13:39;8.05;;;4.50;;
51981;SDS011;37998;53.416;6.730;2023-03-23T04:16:05;10.25;;;4.72;;
51981;SDS011;37998;53.416;6.730;2023-03-23T04:18:32;9.82;;;4.78;;
51981;SDS011;37998;53.416;6.730;2023-03-23T04:20:59;10.15;;;5.40;;
51981;SDS011;37998;53.416;6.730;2023-03-23T04:23:26;9.15;;;5.13;;
51981;SDS011;37998;53.416;6.730;2023-03-23T04:25:55;9.23;;;5.20;;
51981;SDS011;37998;53.416;6.730;2023-03-23T04:28:23;11.15;;;5.05;;
51981;SDS011;37998;53.416;6.730;2023-03-23T04:30:50;8.88;;;4.93;;
51981;SDS011;37998;53.416;6.730;2023-03-23T04:33:21;8.98;;;5.50;;
51981;SDS011;37998;53.416;6.730;2023-03-23T04:35:50;9.32;;;5.60;;
51981;SDS011;37998;53.416;6.730;2023-03-23T04:38:18;9.73;;;4.82;;
51981;SDS011;37998;53.416;6.730;2023-03-23T04:40:45;5.40;;;3.30;;
51981;SDS011;37998;53.416;6.730;2023-03-23T04:43:12;8.13;;;4.72;;
51981;SDS011;37998;53.416;6.730;2023-03-23T04:45:40;5.53;;;4.13;;
51981;SDS011;37998;53.416;6.730;2023-03-23T04:48:11;9.02;;;4.72;;
51981;SDS011;37998;53.416;6.730;2023-03-23T04:50:37;11.27;;;5.47;;
51981;SDS011;37998;53.416;6.730;2023-03-23T04:53:03;8.95;;;3.38;;
51981;SDS011;37998;53.416;6.730;2023-03-23T04:55:33;8.20;;;3.40;;
51981;SDS011;37998;53.416;6.730;2023-03-23T04:58:06;7.43;;;3.13;;
51981;SDS011;37998;53.416;6.730;2023-03-23T05:00:34;4.47;;;2.83;;
51981;SDS011;37998;53.416;6.730;2023-03-23T05:03:01;6.97;;;3.20;;
51981;SDS011;37998;53.416;6.730;2023-03-23T05:05:27;7.22;;;2.75;;
51981;SDS011;37998;53.416;6.730;2023-03-23T05:07:55;7.78;;;2.83;;
51981;SDS011;37998;53.416;6.730;2023-03-23T05:10:21;5.82;;;2.22;;
51981;SDS011;37998;53.416;6.730;2023-03-23T05:12:47;8.35;;;2.20;;
51981;SDS011;37998;53.416;6.730;2023-03-23T05:15:14;6.57;;;2.90;;
51981;SDS011;37998;53.416;6.730;2023-03-23T05:17:40;8.07;;;2.50;;
51981;SDS011;37998;53.416;6.730;2023-03-23T05:20:10;8.27;;;3.22;;
51981;SDS011;37998;53.416;6.730;2023-03-23T05:22:37;7.18;;;2.83;;
51981;SDS011;37998;53.416;6.730;2023-03-23T05:25:03;8.45;;;3.47;;
51981;SDS011;37998;53.416;6.730;2023-03-23T05:27:38;10.57;;;3.27;;
51981;SDS011;37998;53.416;6.730;2023-03-23T05:30:07;12.60;;;3.20;;
51981;SDS011;37998;53.416;6.730;2023-03-23T05:32:33;11.20;;;3.10;;
51981;SDS011;37998;53.416;6.730;2023-03-23T05:34:59;11.02;;;3.55;;
51981;SDS011;37998;53.416;6.730;2023-03-23T05:37:26;10.93;;;3.13;;
51981;SDS011;37998;53.416;6.730;2023-03-23T05:39:53;8.90;;;3.30;;
51981;SDS011;37998;53.416;6.730;2023-03-23T05:42:21;13.13;;;3.60;;
51981;SDS011;37998;53.416;6.730;2023-03-23T05:44:47;13.38;;;3.55;;
51981;SDS011;37998;53.416;6.730;2023-03-23T05:47:14;10.25;;;3.47;;
51981;SDS011;37998;53.416;6.730;2023-03-23T05:49:41;13.48;;;3.70;;
51981;SDS011;37998;53.416;6.730;2023-03-23T05:52:06;10.82;;;3.05;;
51981;SDS011;37998;53.416;6.730;2023-03-23T05:54:32;11.85;;;3.28;;
51981;SDS011;37998;53.416;6.730;2023-03-23T05:56:59;16.80;;;4.93;;
51981;SDS011;37998;53.416;6.730;2023-03-23T05:59:25;17.25;;;4.03;;
51981;SDS011;37998;53.416;6.730;2023-03-23T06:01:51;17.30;;;4.10;;
51981;SDS011;37998;53.416;6.730;2023-03-23T06:04:18;18.08;;;4.32;;
51981;SDS011;37998;53.416;6.730;2023-03-23T06:06:44;18.38;;;4.15;;
51981;SDS011;37998;53.416;6.730;2023-03-23T06:09:10;12.38;;;3.58;;
51981;SDS011;37998;53.416;6.730;2023-03-23T06:11:36;21.67;;;4.00;;
51981;SDS011;37998;53.416;6.730;2023-03-23T06:14:02;23.17;;;4.78;;
51981;SDS011;37998;53.416;6.730;2023-03-23T06:16:28;15.30;;;4.18;;
51981;SDS011;37998;53.416;6.730;2023-03-23T06:18:53;18.92;;;4.60;;
51981;SDS011;37998;53.416;6.730;2023-03-23T06:21:19;25.10;;;4.35;;
51981;SDS011;37998;53.416;6.730;2023-03-23T06:23:46;20.58;;;4.47;;
51981;SDS011;37998;53.416;6.730;2023-03-23T06:26:13;18.75;;;4.75;;
51981;SDS011;37998;53.416;6.730;2023-03-23T06:28:41;24.83;;;4.80;;
51981;SDS011;37998;53.416;6.730;2023-03-23T06:31:08;24.05;;;4.43;;
51981;SDS011;37998;53.416;6.730;2023-03-23T06:33:37;22.98;;;4.28;;
51981;SDS011;37998;53.416;6.730;2023-03-23T06:36:04;26.17;;;5.80;;
51981;SDS011;37998;53.416;6.730;2023-03-23T06:38:30;17.95;;;4.43;;
51981;SDS011;37998;53.416;6.730;2023-03-23T06:40:56;15.00;;;3.85;;
51981;SDS011;37998;53.416;6.730;2023-03-23T06:43:23;16.42;;;3.78;;
51981;SDS011;37998;53.416;6.730;2023-03-23T06:45:49;15.43;;;3.67;;
51981;SDS011;37998;53.416;6.730;2023-03-23T06:48:15;12.57;;;3.13;;
51981;SDS011;37998;53.416;6.730;2023-03-23T06:50:44;14.43;;;3.17;;
51981;SDS011;37998;53.416;6.730;2023-03-23T06:53:11;9.82;;;3.08;;
51981;SDS011;37998;53.416;6.730;2023-03-23T06:55:37;11.27;;;3.30;;
51981;SDS011;37998;53.416;6.730;2023-03-23T06:58:04;13.07;;;3.25;;
51981;SDS011;37998;53.416;6.730;2023-03-23T07:00:31;14.27;;;3.90;;
51981;SDS011;37998;53.416;6.730;2023-03-23T07:02:57;9.40;;;3.47;;
51981;SDS011;37998;53.416;6.730;2023-03-23T07:05:23;12.52;;;3.45;;
51981;SDS011;37998;53.416;6.730;2023-03-23T07:07:49;8.55;;;2.67;;
51981;SDS011;37998;53.416;6.730;2023-03-23T07:10:15;12.52;;;2.92;;
51981;SDS011;37998;53.416;6.730;2023-03-23T07:12:41;14.63;;;3.13;;
51981;SDS011;37998;53.416;6.730;2023-03-23T07:15:07;10.95;;;3.25;;
51981;SDS011;37998;53.416;6.730;2023-03-23T07:17:36;8.70;;;2.47;;
51981;SDS011;37998;53.416;6.730;2023-03-23T07:20:02;15.57;;;3.08;;
51981;SDS011;37998;53.416;6.730;2023-03-23T07:22:29;10.48;;;3.13;;
51981;SDS011;37998;53.416;6.730;2023-03-23T07:24:55;10.85;;;2.65;;
51981;SDS011;37998;53.416;6.730;2023-03-23T07:27:21;8.95;;;2.25;;
51981;SDS011;37998;53.416;6.730;2023-03-23T07:29:47;8.70;;;2.45;;
51981;SDS011;37998;53.416;6.730;2023-03-23T07:32:12;11.40;;;2.80;;
51981;SDS011;37998;53.416;6.730;2023-03-23T07:34:38;14.50;;;2.35;;
51981;SDS011;37998;53.416;6.730;2023-03-23T07:37:04;10.73;;;2.78;;
51981;SDS011;37998;53.416;6.730;2023-03-23T07:39:30;13.82;;;3.30;;
51981;SDS011;37998;53.416;6.730;2023-03-23T07:41:58;12.90;;;3.40;;
51981;SDS011;37998;53.416;6.730;2023-03-23T07:44:24;11.20;;;2.95;;
51981;SDS011;37998;53.416;6.730;2023-03-23T07:46:50;11.65;;;2.88;;
51981;SDS011;37998;53.416;6.730;2023-03-23T07:49:16;15.68;;;3.55;;
51981;SDS011;37998;53.416;6.730;2023-03-23T07:51:43;15.50;;;3.83;;
51981;SDS011;37998;53.416;6.730;2023-03-23T07:54:10;17.77;;;4.05;;
51981;SDS011;37998;53.416;6.730;2023-03-23T07:56:37;16.17;;;3.75;;
51981;SDS011;37998;53.416;6.730;2023-03-23T07:59:05;18.23;;;4.40;;
51981;SDS011;37998;53.416;6.730;2023-03-23T08:01:31;14.52;;;3.53;;
51981;SDS011;37998;53.416;6.730;2023-03-23T08:03:57;19.52;;;5.50;;
51981;SDS011;37998;53.416;6.730;2023-03-23T08:06:24;19.92;;;5.13;;
51981;SDS011;37998;53.416;6.730;2023-03-23T08:08:51;18.30;;;4.90;;
51981;SDS011;37998;53.416;6.730;2023-03-23T08:11:18;18.77;;;3.90;;
51981;SDS011;37998;53.416;6.730;2023-03-23T08:13:44;26.42;;;6.70;;
51981;SDS011;37998;53.416;6.730;2023-03-23T08:16:13;20.40;;;5.20;;
51981;SDS011;37998;53.416;6.730;2023-03-23T08:18:38;21.70;;;5.18;;
51981;SDS011;37998;53.416;6.730;2023-03-23T08:21:05;24.13;;;6.07;;
51981;SDS011;37998;53.416;6.730;2023-03-23T08:23:33;33.08;;;6.47;;
51981;SDS011;37998;53.416;6.730;2023-03-23T08:26:01;24.70;;;6.38;;
51981;SDS011;37998;53.416;6.730;2023-03-23T08:28:28;27.90;;;6.05;;
51981;SDS011;37998;53.416;6.730;2023-03-23T08:30:53;24.67;;;6.03;;
51981;SDS011;37998;53.416;6.730;2023-03-23T08:33:19;24.52;;;5.45;;
51981;SDS011;37998;53.416;6.730;2023-03-23T08:35:53;27.80;;;6.53;;
51981;SDS011;37998;53.416;6.730;2023-03-23T08:38:20;15.60;;;4.90;;
51981;SDS011;37998;53.416;6.730;2023-03-23T08:40:46;28.88;;;5.43;;
51981;SDS011;37998;53.416;6.730;2023-03-23T08:43:12;25.60;;;6.72;;
51981;SDS011;37998;53.416;6.730;2023-03-23T08:45:38;31.23;;;6.32;;
51981;SDS011;37998;53.416;6.730;2023-03-23T08:48:04;28.65;;;5.57;;
51981;SDS011;37998;53.416;6.730;2023-03-23T08:50:32;27.05;;;5.90;;
51981;SDS011;37998;53.416;6.730;2023-03-23T08:52:58;33.40;;;5.88;;
51981;SDS011;37998;53.416;6.730;2023-03-23T08:55:24;26.67;;;6.32;;
51981;SDS011;37998;53.416;6.730;2023-03-23T08:57:51;22.63;;;5.97;;
51981;SDS011;37998;53.416;6.730;2023-03-23T09:00:18;32.83;;;6.10;;
51981;SDS011;37998;53.416;6.730;2023-03-23T09:02:49;28.20;;;5.50;;
51981;SDS011;37998;53.416;6.730;2023-03-23T09:05:18;34.45;;;5.65;;
51981;SDS011;37998;53.416;6.730;2023-03-23T09:07:47;28.05;;;5.97;;
51981;SDS011;37998;53.416;6.730;2023-03-23T09:10:15;29.33;;;6.70;;
51981;SDS011;37998;53.416;6.730;2023-03-23T09:12:42;21.80;;;5.88;;
51981;SDS011;37998;53.416;6.730;2023-03-23T09:15:09;22.85;;;5.88;;
51981;SDS011;37998;53.416;6.730;2023-03-23T09:17:39;20.63;;;5.82;;
51981;SDS011;37998;53.416;6.730;2023-03-23T09:20:08;32.05;;;8.07;;
51981;SDS011;37998;53.416;6.730;2023-03-23T09:22:42;20.70;;;5.63;;
51981;SDS011;37998;53.416;6.730;2023-03-23T09:25:11;20.85;;;5.13;;
51981;SDS011;37998;53.416;6.730;2023-03-23T09:27:40;27.60;;;5.55;;
51981;SDS011;37998;53.416;6.730;2023-03-23T09:30:11;27.58;;;5.65;;
51981;SDS011;37998;53.416;6.730;2023-03-23T09:32:38;21.10;;;5.40;;
51981;SDS011;37998;53.416;6.730;2023-03-23T09:35:05;24.08;;;5.60;;
51981;SDS011;37998;53.416;6.730;2023-03-23T09:37:33;30.15;;;5.20;;
51981;SDS011;37998;53.416;6.730;2023-03-23T09:40:00;27.67;;;6.47;;
51981;SDS011;37998;53.416;6.730;2023-03-23T09:42:36;26.65;;;5.80;;
51981;SDS011;37998;53.416;6.730;2023-03-23T09:50:50;24.65;;;5.47;;
51981;SDS011;37998;53.416;6.730;2023-03-23T09:53:23;30.02;;;5.68;;
51981;SDS011;37998;53.416;6.730;2023-03-23T09:55:53;30.48;;;5.63;;
51981;SDS011;37998;53.416;6.730;2023-03-23T09:58:27;22.92;;;5.50;;
51981;SDS011;37998;53.416;6.730;2023-03-23T10:01:07;19.17;;;4.80;;
51981;SDS011;37998;53.416;6.730;2023-03-23T10:06:45;20.75;;;5.13;;
51981;SDS011;37998;53.416;6.730;2023-03-23T10:09:14;25.33;;;5.70;;
51981;SDS011;37998;53.416;6.730;2023-03-23T10:11:50;25.25;;;6.00;;
51981;SDS011;37998;53.416;6.730;2023-03-23T10:14:32;17.55;;;5.30;;
51981;SDS011;37998;53.416;6.730;2023-03-23T10:17:22;24.15;;;5.35;;
51981;SDS011;37998;53.416;6.730;2023-03-23T10:20:13;21.98;;;5.22;;
51981;SDS011;37998;53.416;6.730;2023-03-23T10:22:42;25.90;;;6.05;;
51981;SDS011;37998;53.416;6.730;2023-03-23T10:25:23;22.02;;;5.70;;
51981;SDS011;37998;53.416;6.730;2023-03-23T10:35:53;15.50;;;4.90;;
51981;SDS011;37998;53.416;6.730;2023-03-23T10:38:37;24.65;;;4.85;;
51981;SDS011;37998;53.416;6.730;2023-03-23T10:41:09;15.40;;;5.32;;
51981;SDS011;37998;53.416;6.730;2023-03-23T10:43:40;18.27;;;4.78;;
51981;SDS011;37998;53.416;6.730;2023-03-23T10:48:54;18.35;;;4.60;;
51981;SDS011;37998;53.416;6.730;2023-03-23T10:51:24;18.63;;;4.22;;
51981;SDS011;37998;53.416;6.730;2023-03-23T10:53:58;19.70;;;5.32;;
51981;SDS011;37998;53.416;6.730;2023-03-23T10:56:28;19.27;;;4.72;;
51981;SDS011;37998;53.416;6.730;2023-03-23T10:58:59;21.13;;;4.78;;
51981;SDS011;37998;53.416;6.730;2023-03-23T11:01:36;21.60;;;5.60;;
51981;SDS011;37998;53.416;6.730;2023-03-23T11:04:02;16.85;;;4.95;;
51981;SDS011;37998;53.416;6.730;2023-03-23T11:06:29;23.38;;;5.10;;
51981;SDS011;37998;53.416;6.730;2023-03-23T11:09:01;25.50;;;5.43;;
51981;SDS011;37998;53.416;6.730;2023-03-23T11:11:37;18.92;;;5.10;;
51981;SDS011;37998;53.416;6.730;2023-03-23T11:16:52;15.18;;;4.05;;
51981;SDS011;37998;53.416;6.730;2023-03-23T11:24:31;17.25;;;4.28;;
51981;SDS011;37998;53.416;6.730;2023-03-23T11:27:02;21.50;;;4.88;;
51981;SDS011;37998;53.416;6.730;2023-03-23T11:29:32;16.58;;;4.22;;
51981;SDS011;37998;53.416;6.730;2023-03-23T11:34:25;25.02;;;4.13;;
51981;SDS011;37998;53.416;6.730;2023-03-23T11:37:02;17.30;;;4.85;;
51981;SDS011;37998;53.416;6.730;2023-03-23T11:39:35;18.70;;;4.78;;
51981;SDS011;37998;53.416;6.730;2023-03-23T11:42:19;21.48;;;4.38;;
51981;SDS011;37998;53.416;6.730;2023-03-23T11:44:47;15.82;;;4.07;;
51981;SDS011;37998;53.416;6.730;2023-03-23T11:52:47;21.45;;;4.25;;
51981;SDS011;37998;53.416;6.730;2023-03-23T11:57:54;20.35;;;5.50;;
51981;SDS011;37998;53.416;6.730;2023-03-23T12:00:22;20.85;;;4.20;;
51981;SDS011;37998;53.416;6.730;2023-03-23T12:20:15;14.43;;;3.38;;
51981;SDS011;37998;53.416;6.730;2023-03-23T12:30:38;9.63;;;3.10;;
51981;SDS011;37998;53.416;6.730;2023-03-23T12:49:10;14.30;;;3.15;;
51981;SDS011;37998;53.416;6.730;2023-03-23T12:57:16;14.15;;;3.42;;
51981;SDS011;37998;53.416;6.730;2023-03-23T13:03:00;13.85;;;3.13;;
51981;SDS011;37998;53.416;6.730;2023-03-23T13:05:47;11.23;;;4.57;;
51981;SDS011;37998;53.416;6.730;2023-03-23T13:08:25;17.95;;;3.97;;
51981;SDS011;37998;53.416;6.730;2023-03-23T13:10:58;13.75;;;3.88;;
51981;SDS011;37998;53.416;6.730;2023-03-23T13:13:40;15.85;;;3.53;;
51981;SDS011;37998;53.416;6.730;2023-03-23T13:16:13;14.77;;;3.60;;
51981;SDS011;37998;53.416;6.730;2023-03-23T13:18:54;15.70;;;3.67;;
51981;SDS011;37998;53.416;6.730;2023-03-23T13:21:32;15.38;;;3.30;;
51981;SDS011;37998;53.416;6.730;2023-03-23T13:24:19;13.75;;;3.60;;
51981;SDS011;37998;53.416;6.730;2023-03-23T13:26:49;14.63;;;4.18;;
51981;SDS011;37998;53.416;6.730;2023-03-23T13:29:19;13.27;;;3.88;;
51981;SDS011;37998;53.416;6.730;2023-03-23T13:31:49;11.43;;;3.22;;
51981;SDS011;37998;53.416;6.730;2023-03-23T13:36:52;13.98;;;4.32;;
51981;SDS011;37998;53.416;6.730;2023-03-23T13:39:33;15.98;;;3.75;;
51981;SDS011;37998;53.416;6.730;2023-03-23T13:42:22;13.15;;;2.97;;
51981;SDS011;37998;53.416;6.730;2023-03-23T13:49:49;13.98;;;3.33;;
51981;SDS011;37998;53.416;6.730;2023-03-23T13:57:52;19.10;;;4.20;;
51981;SDS011;37998;53.416;6.730;2023-03-23T14:10:58;18.17;;;4.10;;
51981;SDS011;37998;53.416;6.730;2023-03-23T14:15:55;15.43;;;3.75;;
51981;SDS011;37998;53.416;6.730;2023-03-23T14:18:21;13.65;;;3.92;;
51981;SDS011;37998;53.416;6.730;2023-03-23T14:20:49;22.42;;;4.50;;
51981;SDS011;37998;53.416;6.730;2023-03-23T14:23:15;14.88;;;4.03;;
51981;SDS011;37998;53.416;6.730;2023-03-23T14:25:42;20.75;;;4.53;;
51981;SDS011;37998;53.416;6.730;2023-03-23T14:28:18;20.85;;;4.28;;
51981;SDS011;37998;53.416;6.730;2023-03-23T14:30:47;17.73;;;4.15;;
51981;SDS011;37998;53.416;6.730;2023-03-23T14:33:17;19.10;;;4.57;;
51981;SDS011;37998;53.416;6.730;2023-03-23T14:35:44;18.73;;;4.13;;
51981;SDS011;37998;53.416;6.730;2023-03-23T14:38:16;17.85;;;4.47;;
51981;SDS011;37998;53.416;6.730;2023-03-23T14:40:45;15.40;;;4.88;;
51981;SDS011;37998;53.416;6.730;2023-03-23T14:43:12;16.52;;;4.18;;
51981;SDS011;37998;53.416;6.730;2023-03-23T14:45:41;16.38;;;3.97;;
51981;SDS011;37998;53.416;6.730;2023-03-23T14:48:08;13.38;;;3.85;;
51981;SDS011;37998;53.416;6.730;2023-03-23T14:50:39;18.38;;;3.75;;
51981;SDS011;37998;53.416;6.730;2023-03-23T14:53:25;15.63;;;3.60;;
51981;SDS011;37998;53.416;6.730;2023-03-23T14:55:59;12.80;;;3.78;;
51981;SDS011;37998;53.416;6.730;2023-03-23T14:58:27;12.82;;;3.40;;
51981;SDS011;37998;53.416;6.730;2023-03-23T15:03:32;17.58;;;4.35;;
51981;SDS011;37998;53.416;6.730;2023-03-23T15:06:03;15.52;;;3.78;;
51981;SDS011;37998;53.416;6.730;2023-03-23T15:08:35;14.48;;;3.70;;
51981;SDS011;37998;53.416;6.730;2023-03-23T15:13:33;15.38;;;4.05;;
51981;SDS011;37998;53.416;6.730;2023-03-23T15:16:07;15.15;;;3.90;;
51981;SDS011;37998;53.416;6.730;2023-03-23T15:19:03;12.18;;;3.70;;
51981;SDS011;37998;53.416;6.730;2023-03-23T15:21:55;14.02;;;3.72;;
51981;SDS011;37998;53.416;6.730;2023-03-23T15:27:50;14.10;;;3.30;;
51981;SDS011;37998;53.416;6.730;2023-03-23T15:29:55;18.00;;;2.97;;
51981;SDS011;37998;53.416;6.730;2023-03-23T15:32:37;13.80;;;4.07;;
51981;SDS011;37998;53.416;6.730;2023-03-23T15:35:10;10.65;;;3.10;;
51981;SDS011;37998;53.416;6.730;2023-03-23T15:37:41;12.00;;;3.20;;
51981;SDS011;37998;53.416;6.730;2023-03-23T15:40:16;10.05;;;3.50;;
51981;SDS011;37998;53.416;6.730;2023-03-23T15:42:44;16.00;;;3.08;;
51981;SDS011;37998;53.416;6.730;2023-03-23T15:47:36;16.92;;;3.20;;
51981;SDS011;37998;53.416;6.730;2023-03-23T15:50:04;13.52;;;3.90;;
51981;SDS011;37998;53.416;6.730;2023-03-23T15:52:42;14.05;;;3.00;;
51981;SDS011;37998;53.416;6.730;2023-03-23T15:55:19;11.45;;;2.63;;
51981;SDS011;37998;53.416;6.730;2023-03-23T15:58:00;9.70;;;2.97;;
51981;SDS011;37998;53.416;6.730;2023-03-23T16:00:29;9.48;;;2.63;;
51981;SDS011;37998;53.416;6.730;2023-03-23T16:02:56;10.57;;;2.80;;
51981;SDS011;37998;53.416;6.730;2023-03-23T16:05:24;8.02;;;2.75;;
51981;SDS011;37998;53.416;6.730;2023-03-23T16:07:51;8.80;;;2.42;;
51981;SDS011;37998;53.416;6.730;2023-03-23T16:10:18;9.02;;;2.60;;
51981;SDS011;37998;53.416;6.730;2023-03-23T16:12:46;10.27;;;2.45;;
51981;SDS011;37998;53.416;6.730;2023-03-23T16:15:12;9.65;;;2.65;;
51981;SDS011;37998;53.416;6.730;2023-03-23T16:17:39;11.82;;;2.75;;
51981;SDS011;37998;53.416;6.730;2023-03-23T16:20:24;10.18;;;2.90;;
51981;SDS011;37998;53.416;6.730;2023-03-23T16:22:50;12.52;;;3.15;;
51981;SDS011;37998;53.416;6.730;2023-03-23T16:25:16;9.50;;;3.15;;
51981;SDS011;37998;53.416;6.730;2023-03-23T16:27:43;9.88;;;3.38;;
51981;SDS011;37998;53.416;6.730;2023-03-23T16:30:18;16.02;;;3.60;;
51981;SDS011;37998;53.416;6.730;2023-03-23T16:32:48;15.35;;;4.75;;
51981;SDS011;37998;53.416;6.730;2023-03-23T16:35:14;12.25;;;4.05;;
51981;SDS011;37998;53.416;6.730;2023-03-23T16:37:47;13.82;;;3.40;;
51981;SDS011;37998;53.416;6.730;2023-03-23T16:40:14;15.95;;;3.30;;
51981;SDS011;37998;53.416;6.730;2023-03-23T16:42:42;11.70;;;3.47;;
51981;SDS011;37998;53.416;6.730;2023-03-23T16:45:08;12.50;;;3.38;;
51981;SDS011;37998;53.416;6.730;2023-03-23T16:47:35;15.85;;;3.78;;
51981;SDS011;37998;53.416;6.730;2023-03-23T16:50:01;15.35;;;4.07;;
51981;SDS011;37998;53.416;6.730;2023-03-23T16:52:30;16.10;;;4.25;;
51981;SDS011;37998;53.416;6.730;2023-03-23T16:54:56;17.15;;;4.10;;
51981;SDS011;37998;53.416;6.730;2023-03-23T16:57:22;14.38;;;4.20;;
51981;SDS011;37998;53.416;6.730;2023-03-23T16:59:48;19.55;;;3.90;;
51981;SDS011;37998;53.416;6.730;2023-03-23T17:02:13;16.80;;;4.15;;
51981;SDS011;37998;53.416;6.730;2023-03-23T17:04:43;17.15;;;3.92;;
51981;SDS011;37998;53.416;6.730;2023-03-23T17:07:10;23.15;;;4.43;;
51981;SDS011;37998;53.416;6.730;2023-03-23T17:09:37;21.00;;;4.72;;
51981;SDS011;37998;53.416;6.730;2023-03-23T17:12:03;21.55;;;4.97;;
51981;SDS011;37998;53.416;6.730;2023-03-23T17:14:29;16.48;;;4.60;;
51981;SDS011;37998;53.416;6.730;2023-03-23T17:16:55;18.48;;;4.55;;
51981;SDS011;37998;53.416;6.730;2023-03-23T17:19:20;17.45;;;4.05;;
51981;SDS011;37998;53.416;6.730;2023-03-23T17:21:46;15.00;;;4.45;;